FMNM/MJN METAR and TAF weather

Enter ICAO airport designator
Station Type Date Time Source
FMNM METAR 2022/06/28 16:00 UTC NOAA

FMNM 281600Z 16007KT 130V190 9999 FEW040 24/11 Q1019 NOSIG


Station Type Date Time Source
FMNM Decoded METAR 2022/06/28 16:00 UTC NOAA

Majunga, Madagascar (FMNM) 15-40S 046-21E 18M
Jun 28, 2022 - 12:00 PM EDT / 2022.06.28 1600 UTC
Wind: from the SSE (160 degrees) at 8 MPH (7 KT) (direction variable):0
Visibility: greater than 7 mile(s):0
Sky conditions: mostly clear
Temperature: 75 F (24 C)
Dew Point: 51 F (11 C)
Relative Humidity: 43%
Pressure (altimeter): 30.09 in. Hg (1019 hPa)
ob: FMNM 281600Z 16007KT 130V190 9999 FEW040 24/11 Q1019 NOSIG
cycle: 16

Station Type Date Time Source
FMNM TAF 2022/06/28 12:12 UTC NOAA

TAF FMNM 281100Z 2812/2912 13012G25KT 9999 FEW023

Example: see airport list